sensor_id;sensor_type;location;lat;lon;timestamp;temperature;humidity
42979;DHT22;28616;44.746;19.678;2023-06-10T00:02:11;19.80;99.90
42979;DHT22;28616;44.746;19.678;2023-06-10T00:04:37;19.70;99.90
42979;DHT22;28616;44.746;19.678;2023-06-10T00:07:04;19.70;99.90
42979;DHT22;28616;44.746;19.678;2023-06-10T00:09:34;19.70;99.90
42979;DHT22;28616;44.746;19.678;2023-06-10T00:12:03;19.70;99.90
42979;DHT22;28616;44.746;19.678;2023-06-10T00:14:29;19.60;99.90
42979;DHT22;28616;44.746;19.678;2023-06-10T00:16:55;19.70;99.90
42979;DHT22;28616;44.746;19.678;2023-06-10T00:19:21;19.60;99.90
42979;DHT22;28616;44.746;19.678;2023-06-10T00:21:51;19.50;99.90
42979;DHT22;28616;44.746;19.678;2023-06-10T00:24:17;19.50;99.90
42979;DHT22;28616;44.746;19.678;2023-06-10T00:26:43;19.50;99.90
42979;DHT22;28616;44.746;19.678;2023-06-10T00:29:10;19.50;99.90
42979;DHT22;28616;44.746;19.678;2023-06-10T00:31:37;19.40;99.90
42979;DHT22;28616;44.746;19.678;2023-06-10T00:34:03;19.40;99.90
42979;DHT22;28616;44.746;19.678;2023-06-10T00:36:29;19.40;99.90
42979;DHT22;28616;44.746;19.678;2023-06-10T00:38:55;19.40;99.90
42979;DHT22;28616;44.746;19.678;2023-06-10T00:41:21;19.40;99.90
42979;DHT22;28616;44.746;19.678;2023-06-10T00:43:47;19.40;99.90
42979;DHT22;28616;44.746;19.678;2023-06-10T00:46:13;19.40;99.90
42979;DHT22;28616;44.746;19.678;2023-06-10T00:48:42;19.30;99.90
42979;DHT22;28616;44.746;19.678;2023-06-10T00:51:09;19.30;99.90
42979;DHT22;28616;44.746;19.678;2023-06-10T00:53:40;19.30;99.90
42979;DHT22;28616;44.746;19.678;2023-06-10T00:56:07;19.30;99.90
42979;DHT22;28616;44.746;19.678;2023-06-10T00:58:33;19.30;99.90
42979;DHT22;28616;44.746;19.678;2023-06-10T01:00:59;19.30;99.90
42979;DHT22;28616;44.746;19.678;2023-06-10T01:03:24;19.20;99.90
42979;DHT22;28616;44.746;19.678;2023-06-10T01:05:57;19.20;99.90
42979;DHT22;28616;44.746;19.678;2023-06-10T01:08:38;19.20;99.90
42979;DHT22;28616;44.746;19.678;2023-06-10T01:11:10;19.20;99.90
42979;DHT22;28616;44.746;19.678;2023-06-10T01:13:40;19.10;99.90
42979;DHT22;28616;44.746;19.678;2023-06-10T01:16:07;19.10;99.90
42979;DHT22;28616;44.746;19.678;2023-06-10T01:18:33;19.10;99.90
42979;DHT22;28616;44.746;19.678;2023-06-10T01:20:59;19.10;99.90
42979;DHT22;28616;44.746;19.678;2023-06-10T01:23:25;19.10;99.90
42979;DHT22;28616;44.746;19.678;2023-06-10T01:26:05;19.10;99.90
42979;DHT22;28616;44.746;19.678;2023-06-10T01:31:18;19.00;99.90
42979;DHT22;28616;44.746;19.678;2023-06-10T01:33:51;19.00;99.90
42979;DHT22;28616;44.746;19.678;2023-06-10T01:36:18;18.90;99.90
42979;DHT22;28616;44.746;19.678;2023-06-10T01:38:47;18.90;99.90
42979;DHT22;28616;44.746;19.678;2023-06-10T01:41:15;18.90;99.90
42979;DHT22;28616;44.746;19.678;2023-06-10T01:43:44;18.90;99.90
42979;DHT22;28616;44.746;19.678;2023-06-10T01:46:10;18.90;99.90
42979;DHT22;28616;44.746;19.678;2023-06-10T01:48:37;18.90;99.90
42979;DHT22;28616;44.746;19.678;2023-06-10T01:51:03;18.90;99.90
42979;DHT22;28616;44.746;19.678;2023-06-10T01:53:29;18.90;99.90
42979;DHT22;28616;44.746;19.678;2023-06-10T01:55:55;18.90;99.90
42979;DHT22;28616;44.746;19.678;2023-06-10T01:58:20;18.80;99.90
42979;DHT22;28616;44.746;19.678;2023-06-10T02:00:46;18.70;99.90
42979;DHT22;28616;44.746;19.678;2023-06-10T02:03:12;18.70;99.90
42979;DHT22;28616;44.746;19.678;2023-06-10T02:05:38;18.70;99.90
42979;DHT22;28616;44.746;19.678;2023-06-10T02:08:04;18.60;99.90
42979;DHT22;28616;44.746;19.678;2023-06-10T02:10:30;18.50;99.90
42979;DHT22;28616;44.746;19.678;2023-06-10T02:12:56;18.50;99.90
42979;DHT22;28616;44.746;19.678;2023-06-10T02:15:22;18.40;99.90
42979;DHT22;28616;44.746;19.678;2023-06-10T02:17:48;18.50;99.90
42979;DHT22;28616;44.746;19.678;2023-06-10T02:20:15;18.40;99.90
42979;DHT22;28616;44.746;19.678;2023-06-10T02:22:40;18.30;99.90
42979;DHT22;28616;44.746;19.678;2023-06-10T02:25:06;18.20;99.90
42979;DHT22;28616;44.746;19.678;2023-06-10T02:27:32;18.20;99.90
42979;DHT22;28616;44.746;19.678;2023-06-10T02:29:58;18.20;99.90
42979;DHT22;28616;44.746;19.678;2023-06-10T02:32:24;18.20;99.90
42979;DHT22;28616;44.746;19.678;2023-06-10T02:34:51;18.20;99.90
42979;DHT22;28616;44.746;19.678;2023-06-10T02:37:16;18.20;99.90
42979;DHT22;28616;44.746;19.678;2023-06-10T02:39:42;18.20;99.90
42979;DHT22;28616;44.746;19.678;2023-06-10T02:42:08;18.10;99.90
42979;DHT22;28616;44.746;19.678;2023-06-10T02:44:35;18.10;99.90
42979;DHT22;28616;44.746;19.678;2023-06-10T02:47:01;18.10;99.90
42979;DHT22;28616;44.746;19.678;2023-06-10T02:49:27;18.10;99.90
42979;DHT22;28616;44.746;19.678;2023-06-10T02:51:55;18.10;99.90
42979;DHT22;28616;44.746;19.678;2023-06-10T02:54:23;18.10;99.90
42979;DHT22;28616;44.746;19.678;2023-06-10T02:56:49;18.10;99.90
42979;DHT22;28616;44.746;19.678;2023-06-10T02:59:15;18.10;99.90
42979;DHT22;28616;44.746;19.678;2023-06-10T03:01:41;18.10;99.90
42979;DHT22;28616;44.746;19.678;2023-06-10T03:04:07;18.10;99.90
42979;DHT22;28616;44.746;19.678;2023-06-10T03:06:33;18.20;99.90
42979;DHT22;28616;44.746;19.678;2023-06-10T03:09:03;18.20;99.90
42979;DHT22;28616;44.746;19.678;2023-06-10T03:11:35;18.30;99.90
42979;DHT22;28616;44.746;19.678;2023-06-10T03:14:01;18.30;99.90
42979;DHT22;28616;44.746;19.678;2023-06-10T03:16:27;18.30;99.90
42979;DHT22;28616;44.746;19.678;2023-06-10T03:18:53;18.40;99.90
42979;DHT22;28616;44.746;19.678;2023-06-10T03:21:19;18.40;99.90
42979;DHT22;28616;44.746;19.678;2023-06-10T03:23:46;18.50;99.90
42979;DHT22;28616;44.746;19.678;2023-06-10T03:26:12;18.50;99.90
42979;DHT22;28616;44.746;19.678;2023-06-10T03:28:40;18.60;99.90
42979;DHT22;28616;44.746;19.678;2023-06-10T03:31:06;18.60;99.90
42979;DHT22;28616;44.746;19.678;2023-06-10T03:33:32;18.60;99.90
42979;DHT22;28616;44.746;19.678;2023-06-10T03:35:59;18.60;99.90
42979;DHT22;28616;44.746;19.678;2023-06-10T03:38:25;18.60;99.90
42979;DHT22;28616;44.746;19.678;2023-06-10T03:40:51;18.60;99.90
42979;DHT22;28616;44.746;19.678;2023-06-10T03:43:16;18.60;99.90
42979;DHT22;28616;44.746;19.678;2023-06-10T03:45:42;18.60;99.90
42979;DHT22;28616;44.746;19.678;2023-06-10T03:48:08;18.50;99.90
42979;DHT22;28616;44.746;19.678;2023-06-10T03:50:35;18.50;99.90
42979;DHT22;28616;44.746;19.678;2023-06-10T03:53:04;18.40;99.90
42979;DHT22;28616;44.746;19.678;2023-06-10T03:55:29;18.40;99.90
42979;DHT22;28616;44.746;19.678;2023-06-10T03:57:56;18.30;99.90
42979;DHT22;28616;44.746;19.678;2023-06-10T04:00:22;18.30;99.90
42979;DHT22;28616;44.746;19.678;2023-06-10T04:02:48;18.30;99.90
42979;DHT22;28616;44.746;19.678;2023-06-10T04:05:19;18.30;99.90
42979;DHT22;28616;44.746;19.678;2023-06-10T04:07:48;18.30;99.90
42979;DHT22;28616;44.746;19.678;2023-06-10T04:10:14;18.40;99.90
42979;DHT22;28616;44.746;19.678;2023-06-10T04:12:41;18.40;99.90
42979;DHT22;28616;44.746;19.678;2023-06-10T04:15:07;18.30;99.90
42979;DHT22;28616;44.746;19.678;2023-06-10T04:17:34;18.40;99.90
42979;DHT22;28616;44.746;19.678;2023-06-10T04:20:00;18.40;99.90
42979;DHT22;28616;44.746;19.678;2023-06-10T04:22:26;18.30;99.90
42979;DHT22;28616;44.746;19.678;2023-06-10T04:24:52;18.30;99.90
42979;DHT22;28616;44.746;19.678;2023-06-10T04:27:18;18.30;99.90
42979;DHT22;28616;44.746;19.678;2023-06-10T04:29:44;18.30;99.90
42979;DHT22;28616;44.746;19.678;2023-06-10T04:32:11;18.20;99.90
42979;DHT22;28616;44.746;19.678;2023-06-10T04:34:37;18.20;99.90
42979;DHT22;28616;44.746;19.678;2023-06-10T04:37:05;18.20;99.90
42979;DHT22;28616;44.746;19.678;2023-06-10T04:39:32;18.20;99.90
42979;DHT22;28616;44.746;19.678;2023-06-10T04:41:58;18.20;99.90
42979;DHT22;28616;44.746;19.678;2023-06-10T04:44:24;18.10;99.90
42979;DHT22;28616;44.746;19.678;2023-06-10T04:46:50;18.10;99.90
42979;DHT22;28616;44.746;19.678;2023-06-10T04:49:15;18.20;99.90
42979;DHT22;28616;44.746;19.678;2023-06-10T04:51:41;18.20;99.90
42979;DHT22;28616;44.746;19.678;2023-06-10T04:54:07;18.20;99.90
42979;DHT22;28616;44.746;19.678;2023-06-10T04:56:33;18.20;99.90
42979;DHT22;28616;44.746;19.678;2023-06-10T04:58:59;18.20;99.90
42979;DHT22;28616;44.746;19.678;2023-06-10T05:01:26;18.20;99.90
42979;DHT22;28616;44.746;19.678;2023-06-10T05:03:53;18.20;99.90
42979;DHT22;28616;44.746;19.678;2023-06-10T05:06:19;18.20;99.90
42979;DHT22;28616;44.746;19.678;2023-06-10T05:08:44;18.30;99.90
42979;DHT22;28616;44.746;19.678;2023-06-10T05:11:10;18.40;99.90
42979;DHT22;28616;44.746;19.678;2023-06-10T05:13:36;18.40;99.90
42979;DHT22;28616;44.746;19.678;2023-06-10T05:16:02;18.40;99.90
42979;DHT22;28616;44.746;19.678;2023-06-10T05:18:29;18.40;99.90
42979;DHT22;28616;44.746;19.678;2023-06-10T05:20:55;18.50;99.90
42979;DHT22;28616;44.746;19.678;2023-06-10T05:23:20;18.50;99.90
42979;DHT22;28616;44.746;19.678;2023-06-10T05:25:47;18.60;99.90
42979;DHT22;28616;44.746;19.678;2023-06-10T05:28:13;18.70;99.90
42979;DHT22;28616;44.746;19.678;2023-06-10T05:30:39;18.70;99.90
42979;DHT22;28616;44.746;19.678;2023-06-10T05:33:05;18.80;99.90
42979;DHT22;28616;44.746;19.678;2023-06-10T05:35:31;18.80;99.90
42979;DHT22;28616;44.746;19.678;2023-06-10T05:37:57;18.90;99.90
42979;DHT22;28616;44.746;19.678;2023-06-10T05:40:23;18.90;99.90
42979;DHT22;28616;44.746;19.678;2023-06-10T05:42:49;19.00;99.90
42979;DHT22;28616;44.746;19.678;2023-06-10T05:45:14;19.00;99.90
42979;DHT22;28616;44.746;19.678;2023-06-10T05:47:40;19.10;99.90
42979;DHT22;28616;44.746;19.678;2023-06-10T05:50:07;19.10;99.90
42979;DHT22;28616;44.746;19.678;2023-06-10T05:52:34;19.20;99.90
42979;DHT22;28616;44.746;19.678;2023-06-10T05:55:01;19.30;99.90
42979;DHT22;28616;44.746;19.678;2023-06-10T05:57:27;19.30;99.90
42979;DHT22;28616;44.746;19.678;2023-06-10T05:59:52;19.30;99.90
42979;DHT22;28616;44.746;19.678;2023-06-10T06:02:18;19.30;99.90
42979;DHT22;28616;44.746;19.678;2023-06-10T06:04:44;19.30;99.90
42979;DHT22;28616;44.746;19.678;2023-06-10T06:07:15;19.30;99.90
42979;DHT22;28616;44.746;19.678;2023-06-10T06:09:42;19.30;99.90
42979;DHT22;28616;44.746;19.678;2023-06-10T06:12:08;19.30;99.90
42979;DHT22;28616;44.746;19.678;2023-06-10T06:14:37;19.30;99.90
42979;DHT22;28616;44.746;19.678;2023-06-10T06:17:06;19.30;99.90
42979;DHT22;28616;44.746;19.678;2023-06-10T06:19:33;19.40;99.90
42979;DHT22;28616;44.746;19.678;2023-06-10T06:21:59;19.40;99.90
42979;DHT22;28616;44.746;19.678;2023-06-10T06:24:24;19.40;99.90
42979;DHT22;28616;44.746;19.678;2023-06-10T06:26:50;19.50;99.90
42979;DHT22;28616;44.746;19.678;2023-06-10T06:29:16;19.50;99.90
42979;DHT22;28616;44.746;19.678;2023-06-10T06:31:42;19.50;99.90
42979;DHT22;28616;44.746;19.678;2023-06-10T06:34:07;19.60;99.90
42979;DHT22;28616;44.746;19.678;2023-06-10T06:36:33;19.60;99.90
42979;DHT22;28616;44.746;19.678;2023-06-10T06:38:59;19.70;99.90
42979;DHT22;28616;44.746;19.678;2023-06-10T06:41:28;19.80;99.90
42979;DHT22;28616;44.746;19.678;2023-06-10T06:43:54;19.80;99.90
42979;DHT22;28616;44.746;19.678;2023-06-10T06:46:20;19.90;99.90
42979;DHT22;28616;44.746;19.678;2023-06-10T06:48:48;20.00;99.90
42979;DHT22;28616;44.746;19.678;2023-06-10T06:51:14;20.20;99.90
42979;DHT22;28616;44.746;19.678;2023-06-10T06:53:40;20.40;99.90
42979;DHT22;28616;44.746;19.678;2023-06-10T06:56:10;20.60;99.90
42979;DHT22;28616;44.746;19.678;2023-06-10T06:58:36;20.90;99.90
42979;DHT22;28616;44.746;19.678;2023-06-10T07:01:02;21.00;99.90
42979;DHT22;28616;44.746;19.678;2023-06-10T07:03:28;21.10;99.90
42979;DHT22;28616;44.746;19.678;2023-06-10T07:05:54;21.20;99.90
42979;DHT22;28616;44.746;19.678;2023-06-10T07:08:20;21.40;99.90
42979;DHT22;28616;44.746;19.678;2023-06-10T07:10:45;21.50;99.90
42979;DHT22;28616;44.746;19.678;2023-06-10T07:13:11;21.60;99.90
42979;DHT22;28616;44.746;19.678;2023-06-10T07:15:38;21.70;99.90
42979;DHT22;28616;44.746;19.678;2023-06-10T07:18:04;21.80;99.90
42979;DHT22;28616;44.746;19.678;2023-06-10T07:20:29;21.90;99.90
42979;DHT22;28616;44.746;19.678;2023-06-10T07:22:55;22.00;99.90
42979;DHT22;28616;44.746;19.678;2023-06-10T07:25:21;22.10;99.90
42979;DHT22;28616;44.746;19.678;2023-06-10T18:14:42;24.50;90.40
42979;DHT22;28616;44.746;19.678;2023-06-10T18:17:08;24.30;90.80
42979;DHT22;28616;44.746;19.678;2023-06-10T18:19:33;24.20;94.10
42979;DHT22;28616;44.746;19.678;2023-06-10T18:21:59;24.10;97.60
42979;DHT22;28616;44.746;19.678;2023-06-10T18:24:25;23.90;99.90
42979;DHT22;28616;44.746;19.678;2023-06-10T18:26:51;23.70;99.90
42979;DHT22;28616;44.746;19.678;2023-06-10T18:29:17;23.60;99.90
42979;DHT22;28616;44.746;19.678;2023-06-10T18:31:43;23.40;99.90
42979;DHT22;28616;44.746;19.678;2023-06-10T18:34:09;23.40;99.90
42979;DHT22;28616;44.746;19.678;2023-06-10T18:36:36;23.30;99.90
42979;DHT22;28616;44.746;19.678;2023-06-10T18:39:01;23.20;99.90
42979;DHT22;28616;44.746;19.678;2023-06-10T18:41:27;23.10;99.90
42979;DHT22;28616;44.746;19.678;2023-06-10T18:43:53;23.00;99.90
42979;DHT22;28616;44.746;19.678;2023-06-10T18:46:21;22.90;99.90
42979;DHT22;28616;44.746;19.678;2023-06-10T18:48:47;22.80;99.90
42979;DHT22;28616;44.746;19.678;2023-06-10T18:51:15;22.70;99.90
42979;DHT22;28616;44.746;19.678;2023-06-10T18:53:41;22.70;99.90
42979;DHT22;28616;44.746;19.678;2023-06-10T18:56:07;22.70;99.90
42979;DHT22;28616;44.746;19.678;2023-06-10T18:58:33;22.70;99.90
42979;DHT22;28616;44.746;19.678;2023-06-10T19:01:00;22.70;99.90
42979;DHT22;28616;44.746;19.678;2023-06-10T19:03:29;22.60;99.90
42979;DHT22;28616;44.746;19.678;2023-06-10T19:05:57;22.50;99.90
42979;DHT22;28616;44.746;19.678;2023-06-10T19:08:28;22.50;99.90
42979;DHT22;28616;44.746;19.678;2023-06-10T19:10:55;22.40;99.90
42979;DHT22;28616;44.746;19.678;2023-06-10T19:13:21;22.30;99.90
42979;DHT22;28616;44.746;19.678;2023-06-10T19:15:47;22.30;99.90
42979;DHT22;28616;44.746;19.678;2023-06-10T19:18:13;22.20;99.90
42979;DHT22;28616;44.746;19.678;2023-06-10T19:20:39;22.10;99.90
42979;DHT22;28616;44.746;19.678;2023-06-10T19:23:06;22.10;99.90
42979;DHT22;28616;44.746;19.678;2023-06-10T19:25:33;22.10;99.90
42979;DHT22;28616;44.746;19.678;2023-06-10T19:27:59;22.10;99.90
42979;DHT22;28616;44.746;19.678;2023-06-10T19:30:24;22.10;99.90
42979;DHT22;28616;44.746;19.678;2023-06-10T19:32:50;22.00;99.90
42979;DHT22;28616;44.746;19.678;2023-06-10T19:35:16;22.00;99.90
42979;DHT22;28616;44.746;19.678;2023-06-10T19:37:42;22.00;99.90
42979;DHT22;28616;44.746;19.678;2023-06-10T19:40:08;22.00;99.90
42979;DHT22;28616;44.746;19.678;2023-06-10T19:42:34;22.00;99.90
42979;DHT22;28616;44.746;19.678;2023-06-10T19:45:03;22.00;99.90
42979;DHT22;28616;44.746;19.678;2023-06-10T19:47:29;22.00;99.90
42979;DHT22;28616;44.746;19.678;2023-06-10T19:49:55;22.00;99.90
42979;DHT22;28616;44.746;19.678;2023-06-10T19:52:21;22.00;99.90
42979;DHT22;28616;44.746;19.678;2023-06-10T19:54:48;21.90;99.90
42979;DHT22;28616;44.746;19.678;2023-06-10T19:57:14;22.00;99.90
42979;DHT22;28616;44.746;19.678;2023-06-10T19:59:40;21.80;99.90
42979;DHT22;28616;44.746;19.678;2023-06-10T20:02:06;21.80;99.90
42979;DHT22;28616;44.746;19.678;2023-06-10T20:04:31;21.80;99.90
42979;DHT22;28616;44.746;19.678;2023-06-10T20:06:57;21.80;99.90
42979;DHT22;28616;44.746;19.678;2023-06-10T20:09:23;21.80;99.90
42979;DHT22;28616;44.746;19.678;2023-06-10T20:11:48;21.80;99.90
42979;DHT22;28616;44.746;19.678;2023-06-10T20:14:14;21.80;99.90
42979;DHT22;28616;44.746;19.678;2023-06-10T20:16:41;21.80;99.90
42979;DHT22;28616;44.746;19.678;2023-06-10T20:19:07;21.70;99.90
42979;DHT22;28616;44.746;19.678;2023-06-10T20:21:33;21.70;99.90
42979;DHT22;28616;44.746;19.678;2023-06-10T20:23:58;21.70;99.90
42979;DHT22;28616;44.746;19.678;2023-06-10T20:26:24;21.60;99.90
42979;DHT22;28616;44.746;19.678;2023-06-10T20:28:50;21.70;99.90
42979;DHT22;28616;44.746;19.678;2023-06-10T20:31:16;21.70;99.90
42979;DHT22;28616;44.746;19.678;2023-06-10T20:33:42;21.70;99.90
42979;DHT22;28616;44.746;19.678;2023-06-10T20:36:07;21.70;99.90
42979;DHT22;28616;44.746;19.678;2023-06-10T20:38:33;21.60;99.90
42979;DHT22;28616;44.746;19.678;2023-06-10T20:40:59;21.60;99.90
42979;DHT22;28616;44.746;19.678;2023-06-10T20:43:25;21.60;99.90
42979;DHT22;28616;44.746;19.678;2023-06-10T20:45:51;21.60;99.90
42979;DHT22;28616;44.746;19.678;2023-06-10T20:48:16;21.60;99.90
42979;DHT22;28616;44.746;19.678;2023-06-10T20:50:42;21.50;99.90
42979;DHT22;28616;44.746;19.678;2023-06-10T20:53:08;21.50;99.90
42979;DHT22;28616;44.746;19.678;2023-06-10T20:55:34;21.50;99.90
42979;DHT22;28616;44.746;19.678;2023-06-10T20:58:01;21.50;99.90
42979;DHT22;28616;44.746;19.678;2023-06-10T21:00:26;21.50;99.90
42979;DHT22;28616;44.746;19.678;2023-06-10T21:02:55;21.50;99.90
42979;DHT22;28616;44.746;19.678;2023-06-10T21:05:21;21.40;99.90
42979;DHT22;28616;44.746;19.678;2023-06-10T21:07:47;21.40;99.90
42979;DHT22;28616;44.746;19.678;2023-06-10T21:10:13;21.40;99.90
42979;DHT22;28616;44.746;19.678;2023-06-10T21:12:41;21.40;99.90
42979;DHT22;28616;44.746;19.678;2023-06-10T21:15:08;21.40;99.90
42979;DHT22;28616;44.746;19.678;2023-06-10T21:17:34;21.40;99.90
42979;DHT22;28616;44.746;19.678;2023-06-10T21:20:00;21.30;99.90
42979;DHT22;28616;44.746;19.678;2023-06-10T21:22:25;21.30;99.90
42979;DHT22;28616;44.746;19.678;2023-06-10T21:24:51;21.20;99.90
42979;DHT22;28616;44.746;19.678;2023-06-10T21:27:17;21.20;99.90
42979;DHT22;28616;44.746;19.678;2023-06-10T21:29:43;21.20;99.90
42979;DHT22;28616;44.746;19.678;2023-06-10T21:32:10;21.30;99.90
42979;DHT22;28616;44.746;19.678;2023-06-10T21:34:37;21.30;99.90
42979;DHT22;28616;44.746;19.678;2023-06-10T21:37:03;21.30;99.90
42979;DHT22;28616;44.746;19.678;2023-06-10T21:39:29;21.20;99.90
42979;DHT22;28616;44.746;19.678;2023-06-10T21:41:54;21.20;99.90
42979;DHT22;28616;44.746;19.678;2023-06-10T21:44:20;21.20;99.90
42979;DHT22;28616;44.746;19.678;2023-06-10T21:46:46;21.30;99.90
42979;DHT22;28616;44.746;19.678;2023-06-10T21:49:12;21.30;99.90
42979;DHT22;28616;44.746;19.678;2023-06-10T21:51:38;21.30;99.90
42979;DHT22;28616;44.746;19.678;2023-06-10T21:54:04;21.30;99.90
42979;DHT22;28616;44.746;19.678;2023-06-10T21:56:29;21.20;99.90
42979;DHT22;28616;44.746;19.678;2023-06-10T21:58:59;21.20;99.90
42979;DHT22;28616;44.746;19.678;2023-06-10T22:01:25;21.20;99.90
42979;DHT22;28616;44.746;19.678;2023-06-10T22:03:52;21.20;99.90
42979;DHT22;28616;44.746;19.678;2023-06-10T22:06:19;21.10;99.90
42979;DHT22;28616;44.746;19.678;2023-06-10T22:08:45;21.10;99.90
42979;DHT22;28616;44.746;19.678;2023-06-10T22:11:11;21.10;99.90
42979;DHT22;28616;44.746;19.678;2023-06-10T22:13:37;21.10;99.90
42979;DHT22;28616;44.746;19.678;2023-06-10T22:16:02;21.00;99.90
42979;DHT22;28616;44.746;19.678;2023-06-10T22:18:29;21.00;99.90
42979;DHT22;28616;44.746;19.678;2023-06-10T22:20:55;21.00;99.90
42979;DHT22;28616;44.746;19.678;2023-06-10T22:23:21;21.00;99.90
42979;DHT22;28616;44.746;19.678;2023-06-10T22:25:47;20.90;99.90
42979;DHT22;28616;44.746;19.678;2023-06-10T22:28:13;20.90;99.90
42979;DHT22;28616;44.746;19.678;2023-06-10T22:30:40;20.90;99.90
42979;DHT22;28616;44.746;19.678;2023-06-10T22:33:05;20.90;99.90
42979;DHT22;28616;44.746;19.678;2023-06-10T22:35:31;20.90;99.90
42979;DHT22;28616;44.746;19.678;2023-06-10T22:37:57;20.90;99.90
42979;DHT22;28616;44.746;19.678;2023-06-10T22:40:23;20.90;99.90
42979;DHT22;28616;44.746;19.678;2023-06-10T22:42:49;20.90;99.90
42979;DHT22;28616;44.746;19.678;2023-06-10T22:45:15;20.90;99.90
42979;DHT22;28616;44.746;19.678;2023-06-10T22:47:41;20.90;99.90
42979;DHT22;28616;44.746;19.678;2023-06-10T22:50:07;20.80;99.90
42979;DHT22;28616;44.746;19.678;2023-06-10T22:52:33;20.80;99.90
42979;DHT22;28616;44.746;19.678;2023-06-10T22:54:58;20.80;99.90
42979;DHT22;28616;44.746;19.678;2023-06-10T22:57:24;20.80;99.90
42979;DHT22;28616;44.746;19.678;2023-06-10T22:59:51;20.80;99.90
42979;DHT22;28616;44.746;19.678;2023-06-10T23:02:17;20.80;99.90
42979;DHT22;28616;44.746;19.678;2023-06-10T23:04:43;20.80;99.90
42979;DHT22;28616;44.746;19.678;2023-06-10T23:07:09;20.70;99.90
42979;DHT22;28616;44.746;19.678;2023-06-10T23:09:35;20.70;99.90
42979;DHT22;28616;44.746;19.678;2023-06-10T23:12:00;20.60;99.90
42979;DHT22;28616;44.746;19.678;2023-06-10T23:14:26;20.50;99.90
42979;DHT22;28616;44.746;19.678;2023-06-10T23:16:52;20.50;99.90
42979;DHT22;28616;44.746;19.678;2023-06-10T23:19:19;20.50;99.90
42979;DHT22;28616;44.746;19.678;2023-06-10T23:21:47;20.40;99.90
42979;DHT22;28616;44.746;19.678;2023-06-10T23:24:20;20.40;99.90
42979;DHT22;28616;44.746;19.678;2023-06-10T23:26:47;20.40;99.90
42979;DHT22;28616;44.746;19.678;2023-06-10T23:29:13;20.40;99.90
42979;DHT22;28616;44.746;19.678;2023-06-10T23:31:39;20.40;99.90
42979;DHT22;28616;44.746;19.678;2023-06-10T23:34:04;20.50;99.90
42979;DHT22;28616;44.746;19.678;2023-06-10T23:36:30;20.50;99.90
42979;DHT22;28616;44.746;19.678;2023-06-10T23:38:57;20.50;99.90
42979;DHT22;28616;44.746;19.678;2023-06-10T23:41:22;20.50;99.90
42979;DHT22;28616;44.746;19.678;2023-06-10T23:43:48;20.50;99.90
42979;DHT22;28616;44.746;19.678;2023-06-10T23:46:14;20.40;99.90
42979;DHT22;28616;44.746;19.678;2023-06-10T23:48:40;20.40;99.90
42979;DHT22;28616;44.746;19.678;2023-06-10T23:51:06;20.40;99.90
42979;DHT22;28616;44.746;19.678;2023-06-10T23:53:32;20.40;99.90
42979;DHT22;28616;44.746;19.678;2023-06-10T23:55:57;20.30;99.90
42979;DHT22;28616;44.746;19.678;2023-06-10T23:58:23;20.30;99.90
